sensor_id;sensor_type;location;lat;lon;timestamp;temperature;humidity
61153;DHT22;47030;50.732;4.286;2022-09-01T00:01:00;20.00;67.80
61153;DHT22;47030;50.732;4.286;2022-09-01T00:03:28;20.00;67.70
61153;DHT22;47030;50.732;4.286;2022-09-01T00:05:54;20.20;66.90
61153;DHT22;47030;50.732;4.286;2022-09-01T00:08:22;20.10;67.20
61153;DHT22;47030;50.732;4.286;2022-09-01T00:10:48;20.20;67.10
61153;DHT22;47030;50.732;4.286;2022-09-01T00:13:14;20.10;67.10
61153;DHT22;47030;50.732;4.286;2022-09-01T00:15:40;20.00;67.10
61153;DHT22;47030;50.732;4.286;2022-09-01T00:18:06;19.90;67.60
61153;DHT22;47030;50.732;4.286;2022-09-01T00:20:32;19.70;68.30
61153;DHT22;47030;50.732;4.286;2022-09-01T00:22:58;19.70;68.60
61153;DHT22;47030;50.732;4.286;2022-09-01T00:25:26;19.40;69.30
61153;DHT22;47030;50.732;4.286;2022-09-01T00:27:53;19.40;69.60
61153;DHT22;47030;50.732;4.286;2022-09-01T00:30:20;19.30;69.70
61153;DHT22;47030;50.732;4.286;2022-09-01T00:32:46;19.50;68.90
61153;DHT22;47030;50.732;4.286;2022-09-01T00:35:14;19.70;68.10
61153;DHT22;47030;50.732;4.286;2022-09-01T00:37:41;19.50;68.60
61153;DHT22;47030;50.732;4.286;2022-09-01T00:40:08;19.40;69.20
61153;DHT22;47030;50.732;4.286;2022-09-01T00:42:36;19.40;69.30
61153;DHT22;47030;50.732;4.286;2022-09-01T00:45:03;19.40;69.00
61153;DHT22;47030;50.732;4.286;2022-09-01T00:47:29;19.40;69.00
61153;DHT22;47030;50.732;4.286;2022-09-01T00:49:55;19.40;69.30
61153;DHT22;47030;50.732;4.286;2022-09-01T00:52:31;19.40;68.90
61153;DHT22;47030;50.732;4.286;2022-09-01T00:55:03;19.40;68.50
61153;DHT22;47030;50.732;4.286;2022-09-01T00:57:29;19.50;68.40
61153;DHT22;47030;50.732;4.286;2022-09-01T01:00:13;19.50;68.90
61153;DHT22;47030;50.732;4.286;2022-09-01T01:02:40;19.40;69.40
61153;DHT22;47030;50.732;4.286;2022-09-01T01:05:07;19.40;69.10
61153;DHT22;47030;50.732;4.286;2022-09-01T01:07:34;19.40;68.70
61153;DHT22;47030;50.732;4.286;2022-09-01T01:10:07;19.50;67.60
61153;DHT22;47030;50.732;4.286;2022-09-01T01:12:33;19.70;67.30
61153;DHT22;47030;50.732;4.286;2022-09-01T01:15:09;19.70;67.00
61153;DHT22;47030;50.732;4.286;2022-09-01T01:17:35;19.60;67.60
61153;DHT22;47030;50.732;4.286;2022-09-01T01:20:02;19.40;68.30
61153;DHT22;47030;50.732;4.286;2022-09-01T01:25:52;19.40;67.70
61153;DHT22;47030;50.732;4.286;2022-09-01T01:28:24;19.30;68.30
61153;DHT22;47030;50.732;4.286;2022-09-01T01:31:02;19.30;68.10
61153;DHT22;47030;50.732;4.286;2022-09-01T01:33:34;19.40;67.40
61153;DHT22;47030;50.732;4.286;2022-09-01T01:36:07;19.30;67.60
61153;DHT22;47030;50.732;4.286;2022-09-01T01:38:34;19.40;67.30
61153;DHT22;47030;50.732;4.286;2022-09-01T01:41:01;19.20;68.10
61153;DHT22;47030;50.732;4.286;2022-09-01T01:43:27;19.30;67.90
61153;DHT22;47030;50.732;4.286;2022-09-01T01:45:55;19.30;67.80
61153;DHT22;47030;50.732;4.286;2022-09-01T01:48:23;19.30;67.50
61153;DHT22;47030;50.732;4.286;2022-09-01T01:50:50;19.10;68.50
61153;DHT22;47030;50.732;4.286;2022-09-01T01:53:17;19.00;69.00
61153;DHT22;47030;50.732;4.286;2022-09-01T01:55:47;19.00;69.00
61153;DHT22;47030;50.732;4.286;2022-09-01T01:58:17;18.90;69.20
61153;DHT22;47030;50.732;4.286;2022-09-01T02:00:45;19.00;69.00
61153;DHT22;47030;50.732;4.286;2022-09-01T02:03:16;19.00;68.50
61153;DHT22;47030;50.732;4.286;2022-09-01T02:05:44;19.00;68.70
61153;DHT22;47030;50.732;4.286;2022-09-01T02:08:11;18.90;68.70
61153;DHT22;47030;50.732;4.286;2022-09-01T02:10:42;18.90;68.50
61153;DHT22;47030;50.732;4.286;2022-09-01T02:13:09;19.00;67.80
61153;DHT22;47030;50.732;4.286;2022-09-01T02:15:45;19.00;68.10
61153;DHT22;47030;50.732;4.286;2022-09-01T02:18:15;18.80;68.60
61153;DHT22;47030;50.732;4.286;2022-09-01T02:20:44;18.70;69.20
61153;DHT22;47030;50.732;4.286;2022-09-01T02:23:10;18.70;69.90
61153;DHT22;47030;50.732;4.286;2022-09-01T02:25:42;18.60;70.30
61153;DHT22;47030;50.732;4.286;2022-09-01T02:28:10;18.60;70.40
61153;DHT22;47030;50.732;4.286;2022-09-01T02:30:43;18.50;70.60
61153;DHT22;47030;50.732;4.286;2022-09-01T02:33:13;18.40;70.50
61153;DHT22;47030;50.732;4.286;2022-09-01T02:36:05;18.40;70.70
61153;DHT22;47030;50.732;4.286;2022-09-01T02:38:31;18.30;71.00
61153;DHT22;47030;50.732;4.286;2022-09-01T02:40:59;18.30;71.30
61153;DHT22;47030;50.732;4.286;2022-09-01T02:43:27;18.30;71.20
61153;DHT22;47030;50.732;4.286;2022-09-01T02:45:55;18.30;71.30
61153;DHT22;47030;50.732;4.286;2022-09-01T02:48:26;18.30;70.30
61153;DHT22;47030;50.732;4.286;2022-09-01T02:50:57;18.30;70.20
61153;DHT22;47030;50.732;4.286;2022-09-01T02:53:24;18.30;70.60
61153;DHT22;47030;50.732;4.286;2022-09-01T02:55:50;18.30;71.20
61153;DHT22;47030;50.732;4.286;2022-09-01T02:58:16;18.30;70.90
61153;DHT22;47030;50.732;4.286;2022-09-01T03:00:45;18.30;70.80
61153;DHT22;47030;50.732;4.286;2022-09-01T03:03:17;18.20;70.70
61153;DHT22;47030;50.732;4.286;2022-09-01T03:05:44;18.30;70.90
61153;DHT22;47030;50.732;4.286;2022-09-01T03:08:11;18.40;70.40
61153;DHT22;47030;50.732;4.286;2022-09-01T03:10:42;18.50;69.80
61153;DHT22;47030;50.732;4.286;2022-09-01T03:13:12;18.40;70.10
61153;DHT22;47030;50.732;4.286;2022-09-01T03:15:39;18.40;70.30
61153;DHT22;47030;50.732;4.286;2022-09-01T03:18:07;18.30;70.50
61153;DHT22;47030;50.732;4.286;2022-09-01T03:20:34;18.20;70.70
61153;DHT22;47030;50.732;4.286;2022-09-01T03:23:02;18.10;70.90
61153;DHT22;47030;50.732;4.286;2022-09-01T03:25:28;18.10;71.20
61153;DHT22;47030;50.732;4.286;2022-09-01T03:27:55;18.00;71.40
61153;DHT22;47030;50.732;4.286;2022-09-01T03:30:23;18.00;71.30
61153;DHT22;47030;50.732;4.286;2022-09-01T03:32:49;17.90;71.50
61153;DHT22;47030;50.732;4.286;2022-09-01T03:35:16;17.80;71.90
61153;DHT22;47030;50.732;4.286;2022-09-01T03:37:42;17.80;71.70
61153;DHT22;47030;50.732;4.286;2022-09-01T03:40:10;17.70;71.80
61153;DHT22;47030;50.732;4.286;2022-09-01T03:42:37;17.70;72.20
61153;DHT22;47030;50.732;4.286;2022-09-01T03:45:04;17.70;72.30
61153;DHT22;47030;50.732;4.286;2022-09-01T03:47:43;17.70;72.30
61153;DHT22;47030;50.732;4.286;2022-09-01T03:50:14;17.60;72.60
61153;DHT22;47030;50.732;4.286;2022-09-01T03:52:55;17.70;72.30
61153;DHT22;47030;50.732;4.286;2022-09-01T03:55:27;17.60;72.60
61153;DHT22;47030;50.732;4.286;2022-09-01T03:58:05;17.50;72.90
61153;DHT22;47030;50.732;4.286;2022-09-01T04:00:35;17.50;73.10
61153;DHT22;47030;50.732;4.286;2022-09-01T04:03:04;17.50;73.30
61153;DHT22;47030;50.732;4.286;2022-09-01T04:05:33;17.60;72.80
61153;DHT22;47030;50.732;4.286;2022-09-01T04:08:01;17.60;72.70
61153;DHT22;47030;50.732;4.286;2022-09-01T04:10:29;17.60;72.60
61153;DHT22;47030;50.732;4.286;2022-09-01T04:12:57;17.50;72.90
61153;DHT22;47030;50.732;4.286;2022-09-01T04:15:24;17.40;73.50
61153;DHT22;47030;50.732;4.286;2022-09-01T04:17:51;17.30;73.90
61153;DHT22;47030;50.732;4.286;2022-09-01T04:20:34;17.30;73.90
61153;DHT22;47030;50.732;4.286;2022-09-01T04:23:13;17.30;74.40
61153;DHT22;47030;50.732;4.286;2022-09-01T04:25:42;17.20;74.60
61153;DHT22;47030;50.732;4.286;2022-09-01T04:28:07;17.20;74.80
61153;DHT22;47030;50.732;4.286;2022-09-01T04:30:51;17.10;75.10
61153;DHT22;47030;50.732;4.286;2022-09-01T04:33:18;17.10;75.30
61153;DHT22;47030;50.732;4.286;2022-09-01T04:35:44;17.00;75.70
61153;DHT22;47030;50.732;4.286;2022-09-01T04:38:10;17.00;75.80
61153;DHT22;47030;50.732;4.286;2022-09-01T04:40:39;17.00;75.90
61153;DHT22;47030;50.732;4.286;2022-09-01T04:43:06;16.90;75.90
61153;DHT22;47030;50.732;4.286;2022-09-01T04:45:33;16.90;75.90
61153;DHT22;47030;50.732;4.286;2022-09-01T04:48:01;17.00;75.70
61153;DHT22;47030;50.732;4.286;2022-09-01T04:50:27;16.90;76.00
61153;DHT22;47030;50.732;4.286;2022-09-01T04:52:59;17.10;75.50
61153;DHT22;47030;50.732;4.286;2022-09-01T04:55:26;17.10;75.50
61153;DHT22;47030;50.732;4.286;2022-09-01T04:57:55;16.90;76.20
61153;DHT22;47030;50.732;4.286;2022-09-01T05:00:23;17.00;76.00
61153;DHT22;47030;50.732;4.286;2022-09-01T05:02:53;17.00;76.10
61153;DHT22;47030;50.732;4.286;2022-09-01T05:05:21;16.90;76.40
61153;DHT22;47030;50.732;4.286;2022-09-01T05:07:48;16.90;76.20
61153;DHT22;47030;50.732;4.286;2022-09-01T05:10:20;17.00;76.20
61153;DHT22;47030;50.732;4.286;2022-09-01T05:12:47;16.80;76.60
61153;DHT22;47030;50.732;4.286;2022-09-01T05:15:14;16.80;77.00
61153;DHT22;47030;50.732;4.286;2022-09-01T05:17:40;16.80;77.40
61153;DHT22;47030;50.732;4.286;2022-09-01T05:20:06;16.80;77.60
61153;DHT22;47030;50.732;4.286;2022-09-01T05:22:34;16.80;77.60
61153;DHT22;47030;50.732;4.286;2022-09-01T05:25:00;16.80;77.70
61153;DHT22;47030;50.732;4.286;2022-09-01T05:27:42;16.90;77.40
61153;DHT22;47030;50.732;4.286;2022-09-01T05:30:14;17.00;77.10
61153;DHT22;47030;50.732;4.286;2022-09-01T05:32:41;17.00;77.00
61153;DHT22;47030;50.732;4.286;2022-09-01T05:35:08;17.10;77.00
61153;DHT22;47030;50.732;4.286;2022-09-01T05:37:37;17.10;77.00
61153;DHT22;47030;50.732;4.286;2022-09-01T05:40:08;17.20;76.80
61153;DHT22;47030;50.732;4.286;2022-09-01T05:42:34;17.40;76.70
61153;DHT22;47030;50.732;4.286;2022-09-01T05:45:04;17.50;76.40
61153;DHT22;47030;50.732;4.286;2022-09-01T05:47:30;17.60;76.10
61153;DHT22;47030;50.732;4.286;2022-09-01T05:50:03;17.60;76.00
61153;DHT22;47030;50.732;4.286;2022-09-01T05:52:32;17.70;75.80
61153;DHT22;47030;50.732;4.286;2022-09-01T05:55:00;17.80;75.40
61153;DHT22;47030;50.732;4.286;2022-09-01T05:57:26;17.90;75.60
61153;DHT22;47030;50.732;4.286;2022-09-01T05:59:52;18.00;75.30
61153;DHT22;47030;50.732;4.286;2022-09-01T06:02:20;18.20;74.90
61153;DHT22;47030;50.732;4.286;2022-09-01T06:04:47;18.70;73.70
61153;DHT22;47030;50.732;4.286;2022-09-01T06:07:15;19.40;71.70
61153;DHT22;47030;50.732;4.286;2022-09-01T06:09:44;20.60;68.10
61153;DHT22;47030;50.732;4.286;2022-09-01T06:12:11;20.90;66.40
61153;DHT22;47030;50.732;4.286;2022-09-01T06:14:42;21.00;65.80
61153;DHT22;47030;50.732;4.286;2022-09-01T06:17:08;20.90;65.90
61153;DHT22;47030;50.732;4.286;2022-09-01T06:19:36;20.80;66.20
61153;DHT22;47030;50.732;4.286;2022-09-01T06:22:03;20.70;66.50
61153;DHT22;47030;50.732;4.286;2022-09-01T06:24:28;20.70;66.60
61153;DHT22;47030;50.732;4.286;2022-09-01T06:26:54;20.80;66.50
61153;DHT22;47030;50.732;4.286;2022-09-01T06:29:20;21.20;65.90
61153;DHT22;47030;50.732;4.286;2022-09-01T06:31:46;21.80;64.20
61153;DHT22;47030;50.732;4.286;2022-09-01T06:34:16;22.70;62.00
61153;DHT22;47030;50.732;4.286;2022-09-01T06:36:43;23.90;59.00
61153;DHT22;47030;50.732;4.286;2022-09-01T06:39:10;23.90;58.90
61153;DHT22;47030;50.732;4.286;2022-09-01T06:41:45;23.60;59.00
61153;DHT22;47030;50.732;4.286;2022-09-01T06:44:14;23.00;60.80
61153;DHT22;47030;50.732;4.286;2022-09-01T06:46:40;23.20;60.80
61153;DHT22;47030;50.732;4.286;2022-09-01T06:49:06;23.30;60.40
61153;DHT22;47030;50.732;4.286;2022-09-01T06:51:36;23.10;60.40
61153;DHT22;47030;50.732;4.286;2022-09-01T06:54:02;23.30;60.70
61153;DHT22;47030;50.732;4.286;2022-09-01T06:56:30;24.30;58.30
61153;DHT22;47030;50.732;4.286;2022-09-01T06:58:59;25.70;54.50
61153;DHT22;47030;50.732;4.286;2022-09-01T07:01:26;25.80;53.90
61153;DHT22;47030;50.732;4.286;2022-09-01T07:03:53;25.90;54.70
61153;DHT22;47030;50.732;4.286;2022-09-01T07:06:21;25.80;54.50
61153;DHT22;47030;50.732;4.286;2022-09-01T07:08:54;25.50;55.10
61153;DHT22;47030;50.732;4.286;2022-09-01T07:11:23;26.00;53.80
61153;DHT22;47030;50.732;4.286;2022-09-01T07:13:55;27.40;52.20
61153;DHT22;47030;50.732;4.286;2022-09-01T07:16:23;28.40;49.40
61153;DHT22;47030;50.732;4.286;2022-09-01T07:18:50;29.70;47.20
61153;DHT22;47030;50.732;4.286;2022-09-01T07:21:18;31.30;43.30
61153;DHT22;47030;50.732;4.286;2022-09-01T07:23:45;32.60;41.90
61153;DHT22;47030;50.732;4.286;2022-09-01T07:26:11;33.70;40.20
61153;DHT22;47030;50.732;4.286;2022-09-01T07:28:48;34.60;40.40
61153;DHT22;47030;50.732;4.286;2022-09-01T07:31:27;35.50;37.60
61153;DHT22;47030;50.732;4.286;2022-09-01T07:33:55;36.30;36.70
61153;DHT22;47030;50.732;4.286;2022-09-01T07:36:23;36.70;35.70
61153;DHT22;47030;50.732;4.286;2022-09-01T07:38:49;37.30;36.00
61153;DHT22;47030;50.732;4.286;2022-09-01T07:41:20;38.10;34.50
61153;DHT22;47030;50.732;4.286;2022-09-01T07:43:46;38.40;33.20
61153;DHT22;47030;50.732;4.286;2022-09-01T07:46:13;38.40;33.50
61153;DHT22;47030;50.732;4.286;2022-09-01T07:48:40;38.40;33.60
61153;DHT22;47030;50.732;4.286;2022-09-01T07:51:06;38.90;32.20
61153;DHT22;47030;50.732;4.286;2022-09-01T07:53:34;38.70;32.40
61153;DHT22;47030;50.732;4.286;2022-09-01T07:56:07;38.30;33.20
61153;DHT22;47030;50.732;4.286;2022-09-01T07:58:35;38.60;32.90
61153;DHT22;47030;50.732;4.286;2022-09-01T08:01:10;38.70;32.50
61153;DHT22;47030;50.732;4.286;2022-09-01T08:03:36;38.90;31.50
61153;DHT22;47030;50.732;4.286;2022-09-01T08:06:07;39.20;32.20
61153;DHT22;47030;50.732;4.286;2022-09-01T08:08:35;39.90;31.40
61153;DHT22;47030;50.732;4.286;2022-09-01T08:11:00;40.60;30.90
61153;DHT22;47030;50.732;4.286;2022-09-01T08:13:27;40.50;31.00
61153;DHT22;47030;50.732;4.286;2022-09-01T08:15:53;40.60;31.50
61153;DHT22;47030;50.732;4.286;2022-09-01T08:18:19;40.40;30.50
61153;DHT22;47030;50.732;4.286;2022-09-01T08:20:45;40.00;30.60
61153;DHT22;47030;50.732;4.286;2022-09-01T08:23:17;39.60;31.30
61153;DHT22;47030;50.732;4.286;2022-09-01T08:25:45;39.00;32.80
61153;DHT22;47030;50.732;4.286;2022-09-01T08:28:13;39.20;31.10
61153;DHT22;47030;50.732;4.286;2022-09-01T08:30:40;39.20;31.30
61153;DHT22;47030;50.732;4.286;2022-09-01T08:33:07;39.30;31.00
61153;DHT22;47030;50.732;4.286;2022-09-01T08:35:38;38.70;31.10
61153;DHT22;47030;50.732;4.286;2022-09-01T08:38:04;37.80;32.40
61153;DHT22;47030;50.732;4.286;2022-09-01T08:40:30;38.10;32.50
61153;DHT22;47030;50.732;4.286;2022-09-01T08:45:47;37.50;33.70
61153;DHT22;47030;50.732;4.286;2022-09-01T08:48:24;38.20;32.10
61153;DHT22;47030;50.732;4.286;2022-09-01T08:54:22;39.60;31.20
61153;DHT22;47030;50.732;4.286;2022-09-01T08:57:00;40.50;30.30
61153;DHT22;47030;50.732;4.286;2022-09-01T08:59:28;41.80;30.90
61153;DHT22;47030;50.732;4.286;2022-09-01T09:10:17;42.30;29.50
61153;DHT22;47030;50.732;4.286;2022-09-01T09:12:48;42.50;29.00
61153;DHT22;47030;50.732;4.286;2022-09-01T09:15:42;42.20;29.30
61153;DHT22;47030;50.732;4.286;2022-09-01T09:20:50;41.00;29.50
61153;DHT22;47030;50.732;4.286;2022-09-01T09:23:33;40.40;29.60
61153;DHT22;47030;50.732;4.286;2022-09-01T09:26:00;39.10;30.90
61153;DHT22;47030;50.732;4.286;2022-09-01T09:28:26;39.00;31.80
61153;DHT22;47030;50.732;4.286;2022-09-01T09:31:28;38.80;31.30
61153;DHT22;47030;50.732;4.286;2022-09-01T09:33:55;38.70;31.50
61153;DHT22;47030;50.732;4.286;2022-09-01T09:36:28;38.50;31.30
61153;DHT22;47030;50.732;4.286;2022-09-01T09:39:20;37.90;31.10
61153;DHT22;47030;50.732;4.286;2022-09-01T09:42:20;37.40;32.20
61153;DHT22;47030;50.732;4.286;2022-09-01T09:44:49;36.90;32.40
61153;DHT22;47030;50.732;4.286;2022-09-01T09:47:37;37.00;33.30
61153;DHT22;47030;50.732;4.286;2022-09-01T09:50:23;36.90;32.30
61153;DHT22;47030;50.732;4.286;2022-09-01T09:52:51;36.80;33.00
61153;DHT22;47030;50.732;4.286;2022-09-01T09:58:20;37.40;32.60
61153;DHT22;47030;50.732;4.286;2022-09-01T10:04:00;38.70;32.40
61153;DHT22;47030;50.732;4.286;2022-09-01T10:06:32;38.50;30.30
61153;DHT22;47030;50.732;4.286;2022-09-01T10:09:05;38.10;31.20
61153;DHT22;47030;50.732;4.286;2022-09-01T10:13:57;37.50;31.20
61153;DHT22;47030;50.732;4.286;2022-09-01T10:16:28;36.90;31.00
61153;DHT22;47030;50.732;4.286;2022-09-01T10:18:57;36.30;31.60
61153;DHT22;47030;50.732;4.286;2022-09-01T10:21:33;36.20;32.00
61153;DHT22;47030;50.732;4.286;2022-09-01T10:24:05;36.60;32.00
61153;DHT22;47030;50.732;4.286;2022-09-01T10:26:36;37.10;31.90
61153;DHT22;47030;50.732;4.286;2022-09-01T10:31:58;38.00;30.00
61153;DHT22;47030;50.732;4.286;2022-09-01T10:34:28;38.30;29.50
61153;DHT22;47030;50.732;4.286;2022-09-01T10:36:57;38.20;29.20
61153;DHT22;47030;50.732;4.286;2022-09-01T10:39:23;37.50;29.90
61153;DHT22;47030;50.732;4.286;2022-09-01T10:41:58;38.00;30.30
61153;DHT22;47030;50.732;4.286;2022-09-01T10:44:54;37.30;29.40
61153;DHT22;47030;50.732;4.286;2022-09-01T10:47:46;37.20;29.50
61153;DHT22;47030;50.732;4.286;2022-09-01T10:50:30;36.80;30.00
61153;DHT22;47030;50.732;4.286;2022-09-01T10:52:59;37.00;30.00
61153;DHT22;47030;50.732;4.286;2022-09-01T10:55:35;36.40;30.50
61153;DHT22;47030;50.732;4.286;2022-09-01T10:58:07;35.80;30.70
61153;DHT22;47030;50.732;4.286;2022-09-01T11:13:53;34.10;31.80
61153;DHT22;47030;50.732;4.286;2022-09-01T11:16:39;34.00;32.20
61153;DHT22;47030;50.732;4.286;2022-09-01T11:22:13;33.70;32.80
61153;DHT22;47030;50.732;4.286;2022-09-01T11:27:54;34.40;31.70
61153;DHT22;47030;50.732;4.286;2022-09-01T11:30:02;34.20;32.30
61153;DHT22;47030;50.732;4.286;2022-09-01T11:32:34;34.10;31.70
61153;DHT22;47030;50.732;4.286;2022-09-01T11:35:04;33.40;31.60
61153;DHT22;47030;50.732;4.286;2022-09-01T11:37:31;32.70;32.80
61153;DHT22;47030;50.732;4.286;2022-09-01T11:40:00;32.30;32.40
61153;DHT22;47030;50.732;4.286;2022-09-01T11:42:36;32.80;33.70
61153;DHT22;47030;50.732;4.286;2022-09-01T11:45:17;33.30;33.00
61153;DHT22;47030;50.732;4.286;2022-09-01T11:47:46;33.50;31.80
61153;DHT22;47030;50.732;4.286;2022-09-01T11:50:24;33.30;32.20
61153;DHT22;47030;50.732;4.286;2022-09-01T11:53:01;32.50;32.30
61153;DHT22;47030;50.732;4.286;2022-09-01T11:55:47;32.50;33.40
61153;DHT22;47030;50.732;4.286;2022-09-01T12:03:37;31.00;34.60
61153;DHT22;47030;50.732;4.286;2022-09-01T12:06:05;31.50;34.70
61153;DHT22;47030;50.732;4.286;2022-09-01T12:08:35;32.00;33.30
61153;DHT22;47030;50.732;4.286;2022-09-01T12:11:10;32.00;33.40
61153;DHT22;47030;50.732;4.286;2022-09-01T12:13:38;31.20;33.90
61153;DHT22;47030;50.732;4.286;2022-09-01T12:16:07;30.50;35.80
61153;DHT22;47030;50.732;4.286;2022-09-01T12:18:35;30.10;35.90
61153;DHT22;47030;50.732;4.286;2022-09-01T12:21:05;29.60;35.70
61153;DHT22;47030;50.732;4.286;2022-09-01T12:23:36;29.50;36.70
61153;DHT22;47030;50.732;4.286;2022-09-01T12:26:07;29.30;36.90
61153;DHT22;47030;50.732;4.286;2022-09-01T12:28:34;29.30;36.80
61153;DHT22;47030;50.732;4.286;2022-09-01T12:31:06;29.50;36.50
61153;DHT22;47030;50.732;4.286;2022-09-01T12:33:32;29.50;36.60
61153;DHT22;47030;50.732;4.286;2022-09-01T12:38:55;28.90;36.70
61153;DHT22;47030;50.732;4.286;2022-09-01T12:44:30;28.20;39.30
61153;DHT22;47030;50.732;4.286;2022-09-01T12:49:54;28.00;39.00
61153;DHT22;47030;50.732;4.286;2022-09-01T12:52:24;27.80;38.90
61153;DHT22;47030;50.732;4.286;2022-09-01T12:55:09;27.80;38.80
61153;DHT22;47030;50.732;4.286;2022-09-01T12:57:49;28.00;38.70
61153;DHT22;47030;50.732;4.286;2022-09-01T13:00:24;28.00;39.50
61153;DHT22;47030;50.732;4.286;2022-09-01T13:03:07;28.20;38.00
61153;DHT22;47030;50.732;4.286;2022-09-01T13:05:43;28.40;38.00
61153;DHT22;47030;50.732;4.286;2022-09-01T13:08:12;28.40;38.40
61153;DHT22;47030;50.732;4.286;2022-09-01T13:10:41;28.20;38.10
61153;DHT22;47030;50.732;4.286;2022-09-01T13:13:09;28.00;38.20
61153;DHT22;47030;50.732;4.286;2022-09-01T13:15:38;27.80;39.20
61153;DHT22;47030;50.732;4.286;2022-09-01T13:18:04;27.80;39.10
61153;DHT22;47030;50.732;4.286;2022-09-01T13:20:30;27.90;39.10
61153;DHT22;47030;50.732;4.286;2022-09-01T13:22:56;28.00;38.70
61153;DHT22;47030;50.732;4.286;2022-09-01T13:25:23;28.10;38.40
61153;DHT22;47030;50.732;4.286;2022-09-01T13:27:50;28.20;38.90
61153;DHT22;47030;50.732;4.286;2022-09-01T13:30:23;28.10;38.30
61153;DHT22;47030;50.732;4.286;2022-09-01T13:32:49;28.10;38.80
61153;DHT22;47030;50.732;4.286;2022-09-01T13:35:18;28.20;38.50
61153;DHT22;47030;50.732;4.286;2022-09-01T13:37:44;28.20;38.10
61153;DHT22;47030;50.732;4.286;2022-09-01T13:40:11;28.20;38.40
61153;DHT22;47030;50.732;4.286;2022-09-01T13:42:48;28.20;38.70
61153;DHT22;47030;50.732;4.286;2022-09-01T13:45:15;28.30;38.40
61153;DHT22;47030;50.732;4.286;2022-09-01T13:47:44;28.10;38.40
61153;DHT22;47030;50.732;4.286;2022-09-01T13:50:13;27.80;39.70
61153;DHT22;47030;50.732;4.286;2022-09-01T13:52:42;27.80;39.10
61153;DHT22;47030;50.732;4.286;2022-09-01T13:55:15;27.70;39.40
61153;DHT22;47030;50.732;4.286;2022-09-01T13:57:41;27.80;39.40
61153;DHT22;47030;50.732;4.286;2022-09-01T14:00:10;27.60;39.60
61153;DHT22;47030;50.732;4.286;2022-09-01T14:02:44;27.70;38.90
61153;DHT22;47030;50.732;4.286;2022-09-01T14:05:27;27.80;39.70
61153;DHT22;47030;50.732;4.286;2022-09-01T14:07:54;27.80;39.90
61153;DHT22;47030;50.732;4.286;2022-09-01T14:10:21;28.00;39.90
61153;DHT22;47030;50.732;4.286;2022-09-01T14:12:48;28.20;39.10
61153;DHT22;47030;50.732;4.286;2022-09-01T14:15:16;28.30;39.70
61153;DHT22;47030;50.732;4.286;2022-09-01T14:17:42;28.20;39.30
61153;DHT22;47030;50.732;4.286;2022-09-01T14:20:12;28.40;39.70
61153;DHT22;47030;50.732;4.286;2022-09-01T14:22:39;28.60;38.70
61153;DHT22;47030;50.732;4.286;2022-09-01T14:25:06;28.40;39.20
61153;DHT22;47030;50.732;4.286;2022-09-01T14:27:32;28.30;38.90
61153;DHT22;47030;50.732;4.286;2022-09-01T14:29:58;27.80;39.20
61153;DHT22;47030;50.732;4.286;2022-09-01T14:32:25;27.50;40.20
61153;DHT22;47030;50.732;4.286;2022-09-01T14:34:54;27.40;40.60
61153;DHT22;47030;50.732;4.286;2022-09-01T14:37:20;27.40;40.90
61153;DHT22;47030;50.732;4.286;2022-09-01T14:39:54;27.30;41.00
61153;DHT22;47030;50.732;4.286;2022-09-01T14:42:20;27.50;40.90
61153;DHT22;47030;50.732;4.286;2022-09-01T14:44:48;27.60;40.10
61153;DHT22;47030;50.732;4.286;2022-09-01T14:47:14;27.70;40.50
61153;DHT22;47030;50.732;4.286;2022-09-01T14:49:41;27.50;39.60
61153;DHT22;47030;50.732;4.286;2022-09-01T14:52:08;27.50;39.20
61153;DHT22;47030;50.732;4.286;2022-09-01T14:54:35;27.40;39.50
61153;DHT22;47030;50.732;4.286;2022-09-01T14:57:02;27.40;39.70
61153;DHT22;47030;50.732;4.286;2022-09-01T14:59:27;27.10;40.00
61153;DHT22;47030;50.732;4.286;2022-09-01T15:01:53;27.00;40.20
61153;DHT22;47030;50.732;4.286;2022-09-01T15:04:19;26.90;40.50
61153;DHT22;47030;50.732;4.286;2022-09-01T15:06:45;26.90;40.40
61153;DHT22;47030;50.732;4.286;2022-09-01T15:09:11;26.70;40.20
61153;DHT22;47030;50.732;4.286;2022-09-01T15:11:37;26.50;40.90
61153;DHT22;47030;50.732;4.286;2022-09-01T15:14:03;26.50;40.50
61153;DHT22;47030;50.732;4.286;2022-09-01T15:16:28;26.60;40.30
61153;DHT22;47030;50.732;4.286;2022-09-01T15:18:54;26.60;41.00
61153;DHT22;47030;50.732;4.286;2022-09-01T15:21:22;26.70;40.50
61153;DHT22;47030;50.732;4.286;2022-09-01T15:23:48;26.80;40.00
61153;DHT22;47030;50.732;4.286;2022-09-01T15:26:15;27.00;40.20
61153;DHT22;47030;50.732;4.286;2022-09-01T15:28:45;27.10;39.40
61153;DHT22;47030;50.732;4.286;2022-09-01T15:31:12;27.10;39.10
61153;DHT22;47030;50.732;4.286;2022-09-01T15:33:39;27.10;38.50
61153;DHT22;47030;50.732;4.286;2022-09-01T15:36:05;27.00;38.90
61153;DHT22;47030;50.732;4.286;2022-09-01T15:38:31;27.00;39.50
61153;DHT22;47030;50.732;4.286;2022-09-01T15:40:57;26.90;39.10
61153;DHT22;47030;50.732;4.286;2022-09-01T15:43:26;26.90;38.70
61153;DHT22;47030;50.732;4.286;2022-09-01T15:45:53;26.80;39.00
61153;DHT22;47030;50.732;4.286;2022-09-01T15:48:19;26.70;38.70
61153;DHT22;47030;50.732;4.286;2022-09-01T15:50:45;26.60;38.60
61153;DHT22;47030;50.732;4.286;2022-09-01T15:53:11;26.60;39.00
61153;DHT22;47030;50.732;4.286;2022-09-01T15:55:42;26.50;38.80
61153;DHT22;47030;50.732;4.286;2022-09-01T15:58:10;26.60;39.80
61153;DHT22;47030;50.732;4.286;2022-09-01T16:00:37;26.40;39.20
61153;DHT22;47030;50.732;4.286;2022-09-01T16:03:04;26.40;39.50
61153;DHT22;47030;50.732;4.286;2022-09-01T16:05:32;26.50;38.20
61153;DHT22;47030;50.732;4.286;2022-09-01T16:07:58;26.30;38.60
61153;DHT22;47030;50.732;4.286;2022-09-01T16:10:26;26.20;38.60
61153;DHT22;47030;50.732;4.286;2022-09-01T16:12:54;26.10;38.70
61153;DHT22;47030;50.732;4.286;2022-09-01T16:15:22;26.10;38.50
61153;DHT22;47030;50.732;4.286;2022-09-01T16:18:08;26.00;39.00
61153;DHT22;47030;50.732;4.286;2022-09-01T16:21:13;25.90;38.90
61153;DHT22;47030;50.732;4.286;2022-09-01T16:23:44;26.00;38.90
61153;DHT22;47030;50.732;4.286;2022-09-01T16:26:10;26.10;39.20
61153;DHT22;47030;50.732;4.286;2022-09-01T16:28:37;26.10;39.10
61153;DHT22;47030;50.732;4.286;2022-09-01T16:31:11;26.10;39.50
61153;DHT22;47030;50.732;4.286;2022-09-01T16:33:38;26.00;38.90
61153;DHT22;47030;50.732;4.286;2022-09-01T16:36:28;26.10;39.30
61153;DHT22;47030;50.732;4.286;2022-09-01T16:39:06;26.10;38.60
61153;DHT22;47030;50.732;4.286;2022-09-01T16:44:52;26.20;38.00
61153;DHT22;47030;50.732;4.286;2022-09-01T16:47:26;26.10;38.90
61153;DHT22;47030;50.732;4.286;2022-09-01T17:03:35;25.90;39.10
61153;DHT22;47030;50.732;4.286;2022-09-01T17:06:23;25.80;39.30
61153;DHT22;47030;50.732;4.286;2022-09-01T17:09:14;25.60;40.00